createdAt,value
2019-02-23T00:02:08.431Z,29.57
2019-02-23T00:04:37.079Z,29.33
2019-02-23T00:07:05.897Z,31.37
2019-02-23T00:09:34.501Z,30.93
2019-02-23T00:12:04.672Z,32.37
2019-02-23T00:14:33.643Z,33.43
2019-02-23T00:17:02.524Z,31.57
2019-02-23T00:19:31.283Z,31.57
2019-02-23T00:22:00.364Z,32.23
2019-02-23T00:24:29.086Z,31.53
2019-02-23T00:26:57.745Z,31.70
2019-02-23T00:29:26.392Z,30.23
2019-02-23T00:31:55.195Z,29.73
2019-02-23T00:34:23.959Z,28.27
2019-02-23T00:36:52.682Z,33.70
2019-02-23T00:39:21.386Z,30.30
2019-02-23T00:41:50.070Z,34.97
2019-02-23T00:44:18.687Z,30.93
2019-02-23T00:46:47.402Z,28.93
2019-02-23T00:49:16.107Z,33.97
2019-02-23T00:51:45.136Z,31.60
2019-02-23T00:54:14.218Z,34.70
2019-02-23T00:56:43.041Z,31.23
2019-02-23T00:59:11.836Z,32.17
2019-02-23T01:01:40.703Z,33.60
2019-02-23T01:04:09.429Z,33.13
2019-02-23T01:06:38.385Z,32.77
2019-02-23T01:09:07.243Z,35.60
2019-02-23T01:11:35.935Z,37.77
2019-02-23T01:14:04.632Z,33.43
2019-02-23T01:16:33.480Z,35.13
2019-02-23T01:19:02.188Z,36.53
2019-02-23T01:21:30.839Z,35.50
2019-02-23T01:23:59.559Z,38.07
2019-02-23T01:26:28.347Z,35.07
2019-02-23T01:28:56.979Z,34.97
2019-02-23T01:31:25.711Z,35.43
2019-02-23T01:33:54.404Z,37.63
2019-02-23T01:36:23.459Z,37.60
2019-02-23T01:38:52.428Z,36.90
2019-02-23T01:41:21.179Z,35.70
2019-02-23T01:43:49.823Z,36.83
2019-02-23T01:46:18.685Z,36.33
2019-02-23T01:48:47.379Z,35.43
2019-02-23T01:51:15.993Z,34.67
2019-02-23T01:53:45.207Z,35.50
2019-02-23T01:56:13.944Z,34.07
2019-02-23T01:58:42.685Z,36.27
2019-02-23T02:01:11.759Z,38.27
2019-02-23T02:03:40.622Z,35.30
2019-02-23T02:06:09.377Z,36.53
2019-02-23T02:08:38.402Z,36.47
2019-02-23T02:11:07.324Z,34.17
2019-02-23T02:13:36.145Z,35.43
2019-02-23T02:16:05.183Z,32.73
2019-02-23T02:18:34.229Z,33.43
2019-02-23T02:21:03.333Z,32.97
2019-02-23T02:23:32.499Z,32.73
2019-02-23T02:26:01.212Z,31.57
2019-02-23T02:28:30.517Z,34.63
2019-02-23T02:30:59.181Z,32.20
2019-02-23T02:33:28.045Z,33.87
2019-02-23T02:35:56.831Z,34.03
2019-02-23T02:38:25.499Z,30.60
2019-02-23T02:40:54.413Z,32.63
2019-02-23T02:43:23.438Z,31.40
2019-02-23T02:45:52.081Z,32.17
2019-02-23T02:48:21.035Z,33.40
2019-02-23T02:50:49.980Z,34.33
2019-02-23T02:53:18.568Z,34.40
2019-02-23T02:55:47.592Z,32.27
2019-02-23T02:58:16.273Z,30.87
2019-02-23T03:00:44.995Z,31.93
2019-02-23T03:03:13.738Z,34.07
2019-02-23T03:05:42.630Z,33.17
2019-02-23T03:08:11.320Z,33.90
2019-02-23T03:10:39.975Z,32.00
2019-02-23T03:13:08.625Z,30.17
2019-02-23T03:15:37.306Z,31.13
2019-02-23T03:18:06.075Z,28.63
2019-02-23T03:20:36.888Z,30.37
2019-02-23T03:23:05.594Z,29.97
2019-02-23T03:25:34.368Z,27.33
2019-02-23T03:28:03.072Z,32.93
2019-02-23T03:30:31.758Z,29.23
2019-02-23T03:33:00.657Z,29.57
2019-02-23T03:35:29.473Z,31.53
2019-02-23T03:37:58.363Z,32.53
2019-02-23T03:40:27.095Z,31.33
2019-02-23T03:42:55.931Z,28.87
2019-02-23T03:45:24.697Z,28.57
2019-02-23T03:47:53.322Z,30.00
2019-02-23T03:50:22.034Z,29.40
2019-02-23T03:52:50.857Z,28.20
2019-02-23T03:55:19.664Z,28.63
2019-02-23T03:57:48.506Z,30.30
2019-02-23T04:00:17.426Z,29.93
2019-02-23T04:02:46.324Z,30.20
2019-02-23T04:05:15.117Z,30.07
2019-02-23T04:07:43.835Z,30.83
2019-02-23T04:10:12.586Z,28.33
2019-02-23T04:12:41.668Z,29.30
2019-02-23T04:15:10.538Z,31.30
2019-02-23T04:17:39.278Z,29.20
2019-02-23T04:20:08.525Z,30.07
2019-02-23T04:22:37.159Z,30.70
2019-02-23T04:25:06.211Z,30.93
2019-02-23T04:27:35.148Z,30.17
2019-02-23T04:30:04.236Z,30.83
2019-02-23T04:32:32.997Z,28.80
2019-02-23T04:35:01.854Z,30.47
2019-02-23T04:37:30.496Z,31.47
2019-02-23T04:39:59.241Z,27.73
2019-02-23T04:42:27.922Z,28.30
2019-02-23T04:44:56.816Z,32.67
2019-02-23T04:47:25.693Z,29.90
2019-02-23T04:49:55.109Z,29.30
2019-02-23T04:52:23.834Z,29.17
2019-02-23T04:54:52.570Z,29.17
2019-02-23T04:57:21.715Z,28.57
2019-02-23T04:59:50.545Z,28.83
2019-02-23T05:02:19.363Z,28.13
2019-02-23T05:04:48.080Z,27.47
2019-02-23T05:07:16.824Z,27.27
2019-02-23T05:09:45.560Z,28.43
2019-02-23T05:12:14.378Z,26.33
2019-02-23T05:14:43.218Z,31.03
2019-02-23T05:17:11.980Z,30.07
2019-02-23T05:19:40.720Z,30.57
2019-02-23T05:22:09.641Z,27.70
2019-02-23T05:24:38.434Z,28.60
2019-02-23T05:27:07.121Z,30.33
2019-02-23T05:29:36.061Z,27.77
2019-02-23T05:32:04.914Z,26.83
2019-02-23T05:34:33.586Z,27.80
2019-02-23T05:37:02.654Z,27.93
2019-02-23T05:39:31.375Z,30.13
2019-02-23T05:42:00.272Z,26.80
2019-02-23T05:44:29.376Z,27.23
2019-02-23T05:46:58.324Z,27.27
2019-02-23T05:49:27.036Z,26.97
2019-02-23T05:51:56.007Z,27.43
2019-02-23T05:54:24.717Z,29.13
2019-02-23T05:56:53.401Z,29.53
2019-02-23T05:59:22.123Z,28.83
2019-02-23T06:01:50.980Z,27.73
2019-02-23T06:04:19.614Z,29.23
2019-02-23T06:06:48.326Z,28.73
2019-02-23T06:09:17.317Z,28.40
2019-02-23T06:11:46.133Z,27.30
2019-02-23T06:14:15.220Z,29.53
2019-02-23T06:16:43.914Z,28.70
2019-02-23T06:19:12.629Z,29.43
2019-02-23T06:21:52.669Z,30.07
2019-02-23T06:24:12.062Z,26.43
2019-02-23T06:26:41.149Z,30.33
2019-02-23T06:29:10.111Z,28.33
2019-02-23T06:31:38.788Z,29.43
2019-02-23T06:34:15.993Z,27.10
2019-02-23T06:36:38.097Z,28.10
2019-02-23T06:39:06.743Z,29.37
2019-02-23T06:41:35.490Z,31.90
2019-02-23T06:44:04.386Z,30.93
2019-02-23T06:46:33.290Z,29.83
2019-02-23T06:49:02.352Z,26.20
2019-02-23T06:51:31.175Z,27.63
2019-02-23T06:53:59.894Z,26.10
2019-02-23T06:56:28.760Z,27.53
2019-02-23T06:58:57.536Z,27.47
2019-02-23T07:01:26.384Z,26.00
2019-02-23T07:03:55.078Z,26.33
2019-02-23T07:06:23.732Z,26.27
2019-02-23T07:08:52.467Z,25.80
2019-02-23T07:11:21.244Z,25.60
2019-02-23T07:13:50.064Z,27.20
2019-02-23T07:16:18.876Z,25.93
2019-02-23T07:18:47.990Z,24.60
2019-02-23T07:21:17.189Z,26.97
2019-02-23T07:23:45.906Z,25.17
2019-02-23T07:26:14.681Z,24.47
2019-02-23T07:28:43.347Z,25.33
2019-02-23T07:31:12.044Z,25.40
2019-02-23T07:33:40.738Z,23.33
2019-02-23T07:36:09.381Z,22.77
2019-02-23T07:38:38.075Z,24.30
2019-02-23T07:41:07.048Z,23.37
2019-02-23T07:43:35.920Z,23.07
2019-02-23T07:46:04.580Z,23.60
2019-02-23T07:48:33.208Z,22.23
2019-02-23T07:51:01.969Z,22.73
2019-02-23T07:53:30.676Z,24.43
2019-02-23T07:55:59.424Z,21.07
2019-02-23T07:58:28.136Z,22.50
2019-02-23T08:00:56.912Z,23.40
2019-02-23T08:03:25.784Z,23.43
2019-02-23T08:05:54.483Z,23.50
2019-02-23T08:08:23.149Z,23.87
2019-02-23T08:10:51.787Z,21.70
2019-02-23T08:13:20.561Z,22.53
2019-02-23T08:15:49.608Z,20.93
2019-02-23T08:18:18.616Z,22.10
2019-02-23T08:20:47.382Z,21.93
2019-02-23T08:23:16.090Z,21.97
2019-02-23T08:25:44.718Z,23.10
2019-02-23T08:28:13.495Z,24.00
2019-02-23T08:30:42.372Z,23.03
2019-02-23T08:33:11.254Z,22.50
2019-02-23T08:35:39.943Z,23.13
2019-02-23T08:38:08.564Z,20.97
2019-02-23T08:40:37.651Z,21.53
2019-02-23T08:43:06.390Z,22.57
2019-02-23T08:45:35.029Z,21.53
2019-02-23T08:48:03.702Z,23.33
2019-02-23T08:50:32.587Z,24.03
2019-02-23T08:53:01.334Z,22.03
2019-02-23T08:55:30.000Z,23.07
2019-02-23T08:57:58.659Z,21.80
2019-02-23T09:00:27.440Z,21.93
2019-02-23T09:02:56.158Z,21.43
2019-02-23T09:05:24.977Z,22.27
2019-02-23T09:07:53.664Z,20.27
2019-02-23T09:10:22.430Z,19.97
2019-02-23T09:12:51.163Z,19.73
2019-02-23T09:15:22.181Z,20.67
2019-02-23T09:17:50.444Z,21.17
2019-02-23T09:20:28.639Z,20.60
2019-02-23T09:22:59.719Z,20.07
2019-02-23T09:25:19.914Z,19.67
2019-02-23T09:27:48.810Z,19.83
2019-02-23T09:30:17.570Z,20.27
2019-02-23T09:32:46.433Z,19.63
2019-02-23T09:35:15.078Z,21.07
2019-02-23T09:37:43.822Z,19.37
2019-02-23T09:40:12.544Z,19.13
2019-02-23T09:42:41.345Z,20.03
2019-02-23T09:45:10.743Z,19.60
2019-02-23T09:47:39.623Z,18.97
2019-02-23T09:50:08.245Z,19.47
2019-02-23T09:52:37.068Z,19.20
2019-02-23T09:55:06.479Z,18.30
2019-02-23T09:57:35.169Z,18.87
2019-02-23T10:00:03.967Z,18.63
2019-02-23T10:02:32.705Z,20.33
2019-02-23T10:05:01.449Z,18.17
2019-02-23T10:07:30.102Z,19.27
2019-02-23T10:09:58.749Z,19.63
2019-02-23T10:12:27.376Z,18.17
2019-02-23T10:14:56.220Z,17.93
2019-02-23T10:17:25.042Z,19.23
2019-02-23T10:19:53.779Z,18.60
2019-02-23T10:22:22.777Z,19.40
2019-02-23T10:24:51.516Z,18.23
2019-02-23T10:27:20.396Z,18.10
2019-02-23T10:29:49.049Z,17.57
2019-02-23T10:32:17.943Z,17.77
2019-02-23T10:34:46.721Z,17.63
2019-02-23T10:37:15.567Z,17.67
2019-02-23T10:39:44.396Z,18.13
2019-02-23T10:42:13.174Z,17.27
2019-02-23T10:44:42.023Z,17.43
2019-02-23T10:47:10.655Z,18.73
2019-02-23T10:49:39.640Z,17.53
2019-02-23T10:52:08.266Z,17.30
2019-02-23T10:54:36.951Z,18.17
2019-02-23T10:57:05.690Z,18.03
2019-02-23T10:59:34.554Z,18.10
2019-02-23T11:02:03.349Z,19.03
2019-02-23T11:04:32.140Z,18.20
2019-02-23T11:07:01.047Z,18.40
2019-02-23T11:09:35.718Z,17.37
2019-02-23T11:12:04.576Z,18.00
2019-02-23T11:14:33.481Z,18.30
2019-02-23T11:17:02.321Z,17.70
2019-02-23T11:19:31.350Z,19.00
2019-02-23T11:22:00.182Z,16.80
2019-02-23T11:24:28.982Z,17.47
2019-02-23T11:26:57.782Z,17.67
2019-02-23T11:29:26.554Z,20.10
2019-02-23T11:31:55.245Z,16.63
2019-02-23T11:34:23.892Z,17.93
2019-02-23T11:36:52.670Z,17.37
2019-02-23T11:39:21.507Z,17.80
2019-02-23T11:41:50.228Z,17.17
2019-02-23T11:44:19.028Z,17.67
2019-02-23T11:46:59.880Z,17.40
2019-02-23T11:49:18.213Z,17.37
2019-02-23T11:51:47.029Z,17.87
2019-02-23T11:54:15.869Z,16.67
2019-02-23T11:56:44.572Z,16.80
2019-02-23T11:59:13.266Z,15.13
2019-02-23T12:01:42.121Z,15.10
2019-02-23T12:04:10.825Z,15.57
2019-02-23T12:06:39.429Z,16.80
2019-02-23T12:09:08.657Z,15.67
2019-02-23T12:11:37.393Z,16.07
2019-02-23T12:14:06.075Z,15.53
2019-02-23T12:16:34.719Z,15.83
2019-02-23T12:19:03.621Z,14.87
2019-02-23T12:21:32.546Z,16.60
2019-02-23T12:24:06.055Z,16.17
2019-02-23T12:26:32.125Z,15.23
2019-02-23T12:29:00.896Z,15.50
2019-02-23T12:31:48.739Z,15.47
2019-02-23T12:34:17.481Z,14.40
2019-02-23T12:36:46.168Z,15.47
2019-02-23T12:39:14.985Z,14.63
2019-02-23T12:41:43.635Z,14.93
2019-02-23T12:44:12.269Z,15.80
2019-02-23T12:46:41.075Z,15.83
2019-02-23T12:49:09.991Z,14.93
2019-02-23T12:51:38.686Z,14.33
2019-02-23T12:54:16.420Z,15.07
2019-02-23T12:56:37.800Z,16.33
2019-02-23T12:59:06.633Z,14.87
2019-02-23T13:01:35.564Z,15.80
2019-02-23T13:04:04.412Z,14.27
2019-02-23T13:06:33.171Z,13.67
2019-02-23T13:09:30.206Z,14.00
2019-02-23T13:12:10.408Z,13.90
2019-02-23T13:15:02.472Z,14.97
2019-02-23T13:17:50.238Z,14.33
2019-02-23T13:20:40.900Z,13.93
2019-02-23T13:23:31.523Z,15.93
2019-02-23T13:26:28.376Z,13.93
2019-02-23T13:29:01.707Z,14.10
2019-02-23T13:31:42.480Z,15.00
2019-02-23T13:34:48.217Z,14.47
2019-02-23T13:37:36.021Z,14.73
2019-02-23T13:40:13.398Z,14.77
2019-02-23T13:42:47.681Z,13.30
2019-02-23T13:45:34.610Z,13.17
2019-02-23T13:48:10.711Z,14.53
2019-02-23T13:50:52.331Z,14.40
2019-02-23T13:53:36.330Z,15.50
2019-02-23T13:56:15.283Z,13.67
2019-02-23T13:59:05.987Z,13.13
2019-02-23T14:01:52.517Z,13.90
2019-02-23T14:04:58.625Z,13.63
2019-02-23T14:07:38.533Z,13.27
2019-02-23T14:10:17.915Z,13.97
2019-02-23T14:13:11.815Z,14.63
2019-02-23T14:15:58.597Z,12.80
2019-02-23T14:18:40.937Z,13.53
2019-02-23T14:21:28.947Z,12.90
2019-02-23T14:24:15.290Z,13.07
2019-02-23T14:27:02.237Z,12.93
2019-02-23T14:29:46.861Z,12.60
2019-02-23T14:32:26.305Z,13.13
2019-02-23T14:35:14.133Z,12.47
2019-02-23T14:38:07.969Z,13.40
2019-02-23T14:41:01.509Z,12.00
2019-02-23T14:43:51.936Z,13.40
2019-02-23T14:46:45.831Z,12.33
2019-02-23T14:49:36.120Z,12.67
2019-02-23T14:52:22.851Z,14.03
2019-02-23T14:55:20.029Z,12.53
2019-02-23T14:58:02.732Z,12.83
2019-02-23T15:00:52.772Z,12.43
2019-02-23T15:03:43.665Z,11.90
2019-02-23T15:06:19.866Z,12.73
2019-02-23T15:09:13.396Z,12.50
2019-02-23T15:12:15.970Z,11.87
2019-02-23T15:14:50.701Z,12.23
2019-02-23T15:17:38.483Z,12.03
2019-02-23T15:20:25.005Z,11.57
2019-02-23T15:23:03.076Z,12.30
2019-02-23T15:25:45.279Z,11.87
2019-02-23T15:28:36.047Z,12.67
2019-02-23T15:31:14.185Z,11.97
2019-02-23T15:34:00.893Z,11.73
2019-02-23T15:36:32.895Z,11.50
2019-02-23T15:39:18.563Z,11.23
2019-02-23T15:42:05.322Z,11.07
2019-02-23T15:44:51.645Z,11.50
2019-02-23T15:47:29.813Z,10.60
2019-02-23T15:49:58.714Z,11.20
2019-02-23T15:52:27.503Z,10.37
2019-02-23T15:54:56.464Z,12.77
2019-02-23T15:57:25.806Z,11.60
2019-02-23T15:59:54.601Z,11.30
2019-02-23T16:02:23.266Z,11.73
2019-02-23T16:04:52.962Z,11.13
2019-02-23T16:07:21.837Z,11.67
2019-02-23T16:09:50.538Z,11.17
2019-02-23T16:12:19.281Z,11.27
2019-02-23T16:14:48.375Z,10.70
2019-02-23T16:17:17.267Z,10.80
2019-02-23T16:19:46.217Z,11.50
2019-02-23T16:22:18.356Z,10.33
2019-02-23T16:24:45.569Z,11.03
2019-02-23T16:27:14.373Z,10.90
2019-02-23T16:29:43.071Z,10.10
2019-02-23T16:32:11.915Z,9.33
2019-02-23T16:34:40.669Z,10.60
2019-02-23T16:37:09.391Z,9.63
2019-02-23T16:39:40.490Z,9.70
2019-02-23T16:42:08.421Z,10.17
2019-02-23T16:44:37.226Z,10.57
2019-02-23T16:47:05.958Z,11.13
2019-02-23T16:49:34.781Z,9.77
2019-02-23T16:52:03.543Z,9.53
2019-02-23T16:54:32.218Z,10.00
2019-02-23T16:57:00.871Z,10.57
2019-02-23T16:59:29.607Z,8.90
2019-02-23T17:01:58.218Z,11.47
2019-02-23T17:04:27.106Z,9.97
2019-02-23T17:06:55.853Z,10.17
2019-02-23T17:09:25.668Z,10.73
2019-02-23T17:11:54.898Z,9.90
2019-02-23T17:14:23.730Z,9.97
2019-02-23T17:16:52.404Z,10.63
2019-02-23T17:19:21.235Z,8.87
2019-02-23T17:21:50.017Z,9.53
2019-02-23T17:24:18.861Z,9.00
2019-02-23T17:26:47.593Z,9.60
2019-02-23T17:29:16.483Z,10.37
2019-02-23T17:31:45.096Z,10.13
2019-02-23T17:34:13.844Z,10.73
2019-02-23T17:36:42.541Z,9.00
2019-02-23T17:39:11.345Z,9.63
2019-02-23T17:41:40.095Z,9.10
2019-02-23T17:44:08.817Z,9.87
2019-02-23T17:46:37.483Z,8.90
2019-02-23T17:49:06.146Z,10.90
2019-02-23T17:51:34.835Z,8.23
2019-02-23T17:54:03.447Z,7.33
2019-02-23T17:56:32.182Z,7.57
2019-02-23T17:59:00.989Z,8.20
2019-02-23T18:01:29.838Z,7.57
2019-02-23T18:03:58.733Z,7.80
2019-02-23T18:06:27.591Z,7.07
2019-02-23T18:08:56.286Z,7.43
2019-02-23T18:11:25.031Z,9.53
2019-02-23T18:13:53.919Z,7.47
2019-02-23T18:16:22.823Z,6.40
2019-02-23T18:18:51.638Z,7.30
2019-02-23T18:21:20.335Z,6.67
2019-02-23T18:23:49.307Z,7.63
2019-02-23T18:26:21.102Z,7.90
2019-02-23T18:28:48.744Z,7.23
2019-02-23T18:31:17.518Z,7.20
2019-02-23T18:33:46.201Z,6.77
2019-02-23T18:36:14.938Z,7.90
2019-02-23T18:38:43.767Z,6.37
2019-02-23T18:41:12.467Z,5.90
2019-02-23T18:43:41.171Z,6.57
2019-02-23T18:46:10.002Z,7.10
2019-02-23T18:48:38.725Z,7.07
2019-02-23T18:51:07.400Z,6.80
2019-02-23T18:53:36.095Z,7.60
2019-02-23T18:56:05.323Z,7.33
2019-02-23T18:58:34.117Z,6.20
2019-02-23T19:01:02.936Z,9.47
2019-02-23T19:03:31.631Z,6.60
2019-02-23T19:06:00.355Z,7.23
2019-02-23T19:08:29.553Z,6.47
2019-02-23T19:10:58.293Z,6.33
2019-02-23T19:13:26.989Z,6.30
2019-02-23T19:15:55.787Z,7.13
2019-02-23T19:18:24.546Z,7.87
2019-02-23T19:20:53.299Z,6.27
2019-02-23T19:23:22.019Z,6.37
2019-02-23T19:25:51.044Z,6.17
2019-02-23T19:28:19.850Z,7.13
2019-02-23T19:30:48.555Z,6.63
2019-02-23T19:33:17.333Z,6.17
2019-02-23T19:35:45.955Z,6.00
2019-02-23T19:38:14.729Z,7.70
2019-02-23T19:40:43.439Z,8.80
2019-02-23T19:43:12.169Z,8.93
2019-02-23T19:45:40.993Z,6.67
2019-02-23T19:48:09.855Z,6.33
2019-02-23T19:50:40.297Z,6.07
2019-02-23T19:53:09.103Z,6.20
2019-02-23T19:55:37.803Z,7.83
2019-02-23T19:58:06.399Z,6.73
2019-02-23T20:00:35.307Z,6.27
2019-02-23T20:03:04.006Z,6.33
2019-02-23T20:05:32.695Z,7.40
2019-02-23T20:08:01.651Z,6.07
2019-02-23T20:10:30.465Z,5.93
2019-02-23T20:12:59.170Z,6.40
2019-02-23T20:15:27.809Z,6.50
2019-02-23T20:17:56.529Z,5.90
2019-02-23T20:20:25.204Z,5.73
2019-02-23T20:22:53.898Z,6.27
2019-02-23T20:25:22.779Z,5.60
2019-02-23T20:27:51.396Z,5.40
2019-02-23T20:30:20.180Z,6.23
2019-02-23T20:32:48.944Z,5.90
2019-02-23T20:35:17.730Z,6.20
2019-02-23T20:37:46.481Z,6.97
2019-02-23T20:40:15.259Z,6.10
2019-02-23T20:42:44.014Z,6.60
2019-02-23T20:45:12.909Z,5.60
2019-02-23T20:47:41.681Z,5.63
2019-02-23T20:50:10.475Z,5.17
2019-02-23T20:52:39.206Z,6.20
2019-02-23T20:55:07.807Z,5.70
2019-02-23T20:57:36.859Z,5.13
2019-02-23T21:00:05.530Z,6.43
2019-02-23T21:02:34.297Z,4.93
2019-02-23T21:05:03.200Z,5.03
2019-02-23T21:07:31.910Z,4.63
2019-02-23T21:10:00.976Z,4.70
2019-02-23T21:12:29.676Z,4.90
2019-02-23T21:14:58.370Z,4.97
2019-02-23T21:17:27.033Z,5.30
2019-02-23T21:19:55.695Z,5.00
2019-02-23T21:22:24.843Z,5.23
2019-02-23T21:24:53.701Z,5.83
2019-02-23T21:27:24.423Z,5.33
2019-02-23T21:29:53.149Z,5.07
2019-02-23T21:32:22.007Z,4.97
2019-02-23T21:34:50.650Z,4.50
2019-02-23T21:37:19.407Z,4.33
2019-02-23T21:39:48.088Z,4.57
2019-02-23T21:42:16.970Z,5.27
2019-02-23T21:44:45.643Z,4.33
2019-02-23T21:47:14.327Z,5.23
2019-02-23T21:49:43.043Z,4.47
2019-02-23T21:52:11.809Z,5.40
2019-02-23T21:54:40.617Z,4.60
2019-02-23T21:57:09.358Z,6.60
2019-02-23T21:59:38.410Z,4.83
2019-02-23T22:02:07.240Z,4.83
2019-02-23T22:04:35.917Z,4.40
2019-02-23T22:07:04.952Z,4.90
2019-02-23T22:09:33.753Z,5.30
2019-02-23T22:12:02.722Z,4.20
2019-02-23T22:14:31.441Z,4.20
2019-02-23T22:17:00.193Z,5.13
2019-02-23T22:19:28.776Z,5.00
2019-02-23T22:21:57.514Z,5.00
2019-02-23T22:24:26.240Z,4.20
2019-02-23T22:26:54.962Z,5.03
2019-02-23T22:29:23.743Z,4.60
2019-02-23T22:31:52.561Z,7.73
2019-02-23T22:34:21.310Z,4.70
2019-02-23T22:36:50.120Z,5.37
2019-02-23T22:39:19.255Z,5.90
2019-02-23T22:41:49.836Z,4.83
2019-02-23T22:44:18.429Z,6.37
2019-02-23T22:46:47.185Z,5.00
2019-02-23T22:49:16.100Z,5.27
2019-02-23T22:51:44.832Z,6.53
2019-02-23T22:54:13.493Z,5.63
2019-02-23T22:56:42.236Z,5.30
2019-02-23T22:59:11.107Z,5.53
2019-02-23T23:01:39.810Z,5.20
2019-02-23T23:04:08.420Z,6.80
2019-02-23T23:06:37.112Z,5.57
2019-02-23T23:09:07.827Z,5.23
2019-02-23T23:11:36.599Z,5.83
2019-02-23T23:14:05.217Z,5.43
2019-02-23T23:16:33.972Z,5.30
2019-02-23T23:19:02.989Z,6.00
2019-02-23T23:21:31.876Z,7.77
2019-02-23T23:24:00.639Z,6.17
2019-02-23T23:26:29.307Z,5.13
2019-02-23T23:28:58.020Z,7.33
2019-02-23T23:31:26.747Z,8.23
2019-02-23T23:33:56.144Z,5.70
2019-02-23T23:36:24.851Z,6.07
2019-02-23T23:38:53.681Z,6.93
2019-02-23T23:41:22.506Z,6.13
2019-02-23T23:43:51.352Z,5.70
2019-02-23T23:46:20.041Z,5.93
2019-02-23T23:48:48.886Z,7.27
2019-02-23T23:51:17.683Z,5.83
2019-02-23T23:53:46.606Z,6.33
2019-02-23T23:56:15.301Z,5.87
2019-02-23T23:58:43.994Z,5.77
